LFLYLFMT

Guest
Details From LFLY - Lyon Bron
To LFMT - Montpellier/Mediterranee
Flight Number -
Tags generated
Created
Modified
Stats Distance 136 nm / 252 km
Max Altitude 14,000 ft / 4,267 m
Waypoints 3
Social Downloads 0
Likes 0
Share VATSIM

Download

Looking for another format? Having issues loading an existing format? Contact us
Advertisement - Login to hide

Notes

Basic altitude profile: - Ascent Rate: 2500ft/min - Ascent Speed: 100kts - Cruise Altitude: 14000ft - Cruise Speed: 150kts - Descent Rate: 1500ft/min - Descent Speed: 100kts

Route

LFLY NELEN LFMT

ID Type Via Altitude Latitude Longitude Leg Dist Tot Dist Heading (true) Name
O LFLY APT - 0 ft / 0 m 45.72717˚ 4.94427˚ - 0 nm - Lyon Bron
NELEN FIX - 14,000 ft / 4,267 m 45.11861˚ 4.61167˚ 39 nm 39 nm 201° / 201° -
O LFMT APT - 0 ft / 0 m 43.57626˚ 3.96326˚ 96 nm 135 nm 197° / 197° Montpellier/Mediterranee

Altitude Profile

Advertisement - Login to hide

LFLY

Details ICAO LFLY (LYN)
Name Lyon Bron
Region France
Timezone Europe/Paris (UTC+1.0)
Stats Elevation 659 ft / 201 m (AMSL)
Location 45.727171° 4.944274°
Runways 1
Magnetic Variation 1.450° E

METAR

LFLY 140230Z AUTO 18020G31KT CAVOK 08/05 Q1009 NOSIG

Decode

TAF

TAF LFLY 132300Z 1400/1424 18015G25KT 9999 OVC050 PROB40 TEMPO 1400/1402 18020G35KT TEMPO 1406/1408 -SHRA SCT045TCU OVC050 TEMPO 1422/1424 27015G25KT 5000 SHRA SCT025CB OVC050

Decode

Departure Runways

ID Width Length Bearing (true) Bearing (mag) Surface Threshold Offset Overrun Length
16 148 ft / 45 m 5,972 ft / 1,820 m 163.44° 161.99° Asphalt 984 ft / 300 m 0 ft / 0 m
34 148 ft / 45 m 5,972 ft / 1,820 m 343.44° 341.99° Asphalt 984 ft / 300 m 0 ft / 0 m

LFMT

Details ICAO LFMT (MPL)
Name Montpellier/Mediterranee
Region France
Timezone Europe/Paris (UTC+1.0)
Stats Elevation 16 ft / 5 m (AMSL)
Location 43.576262° 3.963261°
Runways 2
Magnetic Variation 1.247° E

METAR

LFMT 140230Z AUTO 22006KT 9999 BKN048 OVC056 09/07 Q1014 NOSIG

Decode

TAF

TAF LFMT 140200Z 1403/1503 VRB02KT 8000 SCT030 BKN045 BECMG 1408/1410 26012KT TEMPO 1415/1503 25015G25KT

Decode

Destination Runways

ID Width Length Bearing (true) Bearing (mag) Surface Threshold Offset Overrun Length
13L 164 ft / 50 m 8,525 ft / 2,598 m 124.78° 123.53° Asphalt 0 ft / 0 m 0 ft / 0 m
13R 98 ft / 30 m 3,611 ft / 1,101 m 124.80° 123.55° Asphalt 328 ft / 100 m 0 ft / 0 m
31L 98 ft / 30 m 3,611 ft / 1,101 m 304.81° 303.56° Asphalt 0 ft / 0 m 0 ft / 0 m
31R 164 ft / 50 m 8,525 ft / 2,598 m 304.80° 303.55° Asphalt 0 ft / 0 m 0 ft / 0 m

Approach Navaids

Runway Type Ident Frequency Range Bearing (true) Bearing (mag) Slope Elevation
31R Localiser FG 108.55 MHz 27 nm / 50 km 304.75° 303.50° - 16 ft / 5 m (AMSL)
31R Glidescope FG 108.55 MHz 27 nm / 50 km 304.75° 303.50° 3.00° 16 ft / 5 m (AMSL)
31R DME FG 108.55 MHz 27 nm / 50 km - - - 16 ft / 5 m (AMSL)

Popular Alternatives